createdAt,value
2019-02-08T00:02:18.369Z,12.10
2019-02-08T00:04:47.347Z,11.97
2019-02-08T00:07:16.225Z,11.83
2019-02-08T00:09:45.185Z,10.20
2019-02-08T00:12:14.062Z,11.07
2019-02-08T00:14:43.034Z,12.67
2019-02-08T00:17:11.922Z,8.57
2019-02-08T00:19:40.801Z,10.43
2019-02-08T00:22:10.038Z,9.27
2019-02-08T00:24:38.931Z,10.20
2019-02-08T00:27:07.933Z,8.27
2019-02-08T00:29:36.888Z,8.20
2019-02-08T00:32:05.970Z,8.63
2019-02-08T00:34:34.899Z,8.40
2019-02-08T00:37:03.783Z,8.63
2019-02-08T00:39:32.874Z,7.97
2019-02-08T00:42:01.681Z,8.73
2019-02-08T00:44:30.633Z,8.70
2019-02-08T00:46:59.526Z,9.60
2019-02-08T00:49:28.329Z,10.17
2019-02-08T00:51:57.313Z,8.27
2019-02-08T00:54:26.293Z,13.90
2019-02-08T00:56:55.333Z,8.40
2019-02-08T00:59:24.273Z,6.47
2019-02-08T01:01:53.161Z,8.90
2019-02-08T01:04:22.037Z,9.00
2019-02-08T01:06:50.942Z,9.63
2019-02-08T01:09:19.889Z,10.97
2019-02-08T01:11:49.358Z,6.90
2019-02-08T01:14:18.311Z,9.10
2019-02-08T01:16:47.125Z,7.93
2019-02-08T01:19:16.170Z,9.20
2019-02-08T01:21:45.122Z,6.30
2019-02-08T01:24:14.145Z,6.53
2019-02-08T01:26:45.126Z,6.40
2019-02-08T01:29:14.082Z,6.40
2019-02-08T01:31:42.885Z,6.17
2019-02-08T01:34:11.849Z,6.77
2019-02-08T01:36:40.721Z,7.17
2019-02-08T01:39:09.905Z,7.13
2019-02-08T01:41:38.853Z,9.20
2019-02-08T01:44:07.820Z,7.00
2019-02-08T01:46:36.757Z,8.17
2019-02-08T01:49:06.418Z,5.13
2019-02-08T01:51:35.293Z,7.00
2019-02-08T01:54:04.257Z,8.57
2019-02-08T01:56:33.134Z,8.23
2019-02-08T01:59:02.074Z,6.63
2019-02-08T02:01:30.981Z,7.67
2019-02-08T02:04:00.036Z,5.90
2019-02-08T02:09:46.961Z,6.10
2019-02-08T02:12:15.768Z,8.87
2019-02-08T02:14:44.835Z,5.43
2019-02-08T02:17:13.798Z,4.30
2019-02-08T02:19:42.598Z,7.33
2019-02-08T02:22:11.486Z,5.97
2019-02-08T02:24:40.285Z,5.40
2019-02-08T02:27:09.102Z,7.70
2019-02-08T02:29:38.073Z,5.03
2019-02-08T02:32:07.311Z,4.37
2019-02-08T02:34:36.270Z,6.40
2019-02-08T02:37:05.217Z,5.37
2019-02-08T02:39:34.129Z,5.10
2019-02-08T02:42:02.995Z,7.67
2019-02-08T02:44:31.947Z,6.10
2019-02-08T02:47:00.844Z,6.17
2019-02-08T02:49:29.798Z,5.53
2019-02-08T02:51:59.161Z,4.77
2019-02-08T02:54:28.044Z,5.10
2019-02-08T02:56:56.861Z,5.40
2019-02-08T02:59:25.914Z,4.87
2019-02-08T03:01:54.941Z,4.47
2019-02-08T03:04:23.910Z,7.73
2019-02-08T03:06:52.871Z,4.73
2019-02-08T03:09:21.832Z,5.30
2019-02-08T03:11:50.709Z,4.80
2019-02-08T03:14:19.599Z,4.70
2019-02-08T03:16:48.486Z,4.97
2019-02-08T03:19:17.370Z,4.50
2019-02-08T03:21:46.181Z,5.17
2019-02-08T03:24:15.050Z,4.43
2019-02-08T03:26:43.945Z,5.43
2019-02-08T03:29:12.822Z,5.30
2019-02-08T03:31:41.865Z,5.67
2019-02-08T03:34:10.747Z,5.97
2019-02-08T03:36:39.562Z,3.97
2019-02-08T03:39:08.955Z,4.20
2019-02-08T03:41:37.924Z,3.77
2019-02-08T03:44:07.477Z,4.57
2019-02-08T03:46:36.386Z,5.90
2019-02-08T03:49:05.799Z,7.50
2019-02-08T03:51:34.770Z,4.60
2019-02-08T03:54:03.826Z,4.80
2019-02-08T03:56:32.782Z,4.90
2019-02-08T03:59:04.208Z,3.30
2019-02-08T04:01:33.081Z,4.17
2019-02-08T04:04:16.027Z,3.77
2019-02-08T04:06:44.974Z,3.37
2019-02-08T04:09:13.938Z,3.93
2019-02-08T04:11:42.815Z,3.13
2019-02-08T04:14:11.959Z,4.67
2019-02-08T04:16:40.969Z,3.73
2019-02-08T04:19:09.845Z,4.13
2019-02-08T04:21:38.672Z,2.87
2019-02-08T04:24:07.653Z,4.43
2019-02-08T04:26:36.541Z,6.03
2019-02-08T04:29:05.498Z,4.33
2019-02-08T04:31:34.369Z,3.67
2019-02-08T04:34:03.354Z,3.60
2019-02-08T04:36:32.225Z,4.33
2019-02-08T04:39:01.250Z,4.70
2019-02-08T04:41:30.139Z,3.93
2019-02-08T04:43:58.967Z,3.80
2019-02-08T04:46:27.782Z,4.67
2019-02-08T04:48:56.659Z,4.97
2019-02-08T04:51:25.831Z,3.20
2019-02-08T04:53:54.778Z,2.70
2019-02-08T04:56:23.602Z,6.20
2019-02-08T04:58:52.479Z,3.97
2019-02-08T05:01:21.366Z,4.97
2019-02-08T05:03:50.270Z,3.73
2019-02-08T05:06:20.553Z,4.93
2019-02-08T05:08:49.442Z,3.60
2019-02-08T05:11:18.249Z,2.80
2019-02-08T05:13:47.135Z,3.53
2019-02-08T05:16:16.017Z,2.77
2019-02-08T05:18:44.982Z,3.17
2019-02-08T05:21:13.781Z,3.83
2019-02-08T05:23:42.598Z,4.10
2019-02-08T05:26:11.746Z,4.13
2019-02-08T05:28:40.867Z,4.17
2019-02-08T05:31:09.747Z,3.50
2019-02-08T05:33:38.915Z,3.27
2019-02-08T05:36:07.891Z,3.03
2019-02-08T05:38:36.766Z,4.20
2019-02-08T05:41:05.833Z,2.67
2019-02-08T05:43:34.637Z,2.70
2019-02-08T05:46:03.521Z,3.13
2019-02-08T05:48:32.334Z,3.23
2019-02-08T05:51:01.162Z,3.67
2019-02-08T05:53:30.041Z,2.47
2019-02-08T05:55:58.914Z,3.60
2019-02-08T05:58:27.877Z,3.93
2019-02-08T06:00:57.690Z,3.70
2019-02-08T06:03:26.753Z,3.13
2019-02-08T06:05:55.706Z,3.43
2019-02-08T06:08:24.669Z,2.10
2019-02-08T06:10:53.661Z,3.13
2019-02-08T06:13:22.629Z,5.53
2019-02-08T06:15:51.574Z,3.83
2019-02-08T06:18:20.460Z,3.73
2019-02-08T06:20:49.425Z,3.77
2019-02-08T06:23:18.372Z,3.13
2019-02-08T06:25:47.338Z,3.23
2019-02-08T06:28:16.222Z,2.83
2019-02-08T06:30:45.182Z,2.83
2019-02-08T06:33:14.076Z,2.70
2019-02-08T06:35:43.019Z,3.30
2019-02-08T06:38:11.990Z,2.27
2019-02-08T06:40:42.757Z,2.97
2019-02-08T06:43:11.837Z,2.63
2019-02-08T06:45:40.991Z,3.03
2019-02-08T06:48:11.767Z,2.93
2019-02-08T06:50:40.660Z,3.60
2019-02-08T06:53:09.525Z,3.03
2019-02-08T06:55:38.410Z,2.87
2019-02-08T06:58:22.232Z,3.50
2019-02-08T07:01:14.193Z,3.97
2019-02-08T07:03:50.155Z,3.27
2019-02-08T07:06:32.074Z,2.73
2019-02-08T07:09:13.874Z,3.10
2019-02-08T07:12:00.265Z,3.03
2019-02-08T07:14:43.519Z,5.60
2019-02-08T07:17:34.421Z,3.40
2019-02-08T07:20:17.622Z,3.27
2019-02-08T07:23:03.335Z,2.80
2019-02-08T07:25:39.187Z,2.20
2019-02-08T07:28:30.230Z,3.50
2019-02-08T07:31:23.420Z,3.17
2019-02-08T07:34:10.902Z,2.47
2019-02-08T07:37:05.010Z,3.57
2019-02-08T07:39:45.102Z,2.90
2019-02-08T07:42:21.109Z,2.60
2019-02-08T07:45:07.045Z,2.90
2019-02-08T07:47:54.173Z,10.73
2019-02-08T07:50:34.644Z,4.00
2019-02-08T07:53:29.866Z,6.63
2019-02-08T07:56:19.857Z,4.20
2019-02-08T07:58:55.997Z,3.07
2019-02-08T08:01:37.789Z,4.10
2019-02-08T08:04:25.105Z,2.63
2019-02-08T08:07:12.135Z,2.70
2019-02-08T08:09:52.164Z,2.50
2019-02-08T08:12:55.390Z,2.70
2019-02-08T08:15:46.289Z,6.57
2019-02-08T08:18:26.270Z,9.73
2019-02-08T08:21:12.684Z,15.27
2019-02-08T08:23:54.585Z,10.70
2019-02-08T08:26:32.861Z,9.60
2019-02-08T08:29:13.393Z,13.90
2019-02-08T08:32:02.938Z,7.30
2019-02-08T08:34:59.495Z,7.37
2019-02-08T08:37:50.722Z,7.90
2019-02-08T08:40:59.474Z,8.97
2019-02-08T08:43:57.906Z,7.37
2019-02-08T08:47:05.168Z,9.83
2019-02-08T08:49:55.942Z,13.63
2019-02-08T08:53:08.954Z,14.27
2019-02-08T08:55:50.862Z,8.73
2019-02-08T08:58:34.179Z,7.37
2019-02-08T09:01:42.898Z,8.83
2019-02-08T09:05:19.795Z,6.13
2019-02-08T09:08:29.819Z,6.57
2019-02-08T09:11:41.842Z,11.70
2019-02-08T09:14:41.234Z,7.50
2019-02-08T09:17:54.154Z,6.20
2019-02-08T09:20:45.102Z,8.70
2019-02-08T09:23:52.989Z,8.47
2019-02-08T09:26:54.170Z,9.70
2019-02-08T09:30:19.078Z,13.63
2019-02-08T09:33:23.610Z,13.50
2019-02-08T09:36:33.806Z,21.30
2019-02-08T09:39:28.405Z,17.83
2019-02-08T09:42:59.317Z,20.97
2019-02-08T09:46:03.071Z,14.07
2019-02-08T09:49:05.785Z,12.80
2019-02-08T09:52:03.954Z,11.70
2019-02-08T09:55:25.875Z,14.73
2019-02-08T09:58:27.233Z,9.07
2019-02-08T10:01:33.133Z,18.83
2019-02-08T10:04:41.664Z,10.80
2019-02-08T10:07:38.462Z,10.47
2019-02-08T10:10:43.155Z,18.87
2019-02-08T10:13:58.206Z,10.10
2019-02-08T10:17:02.918Z,13.17
2019-02-08T10:20:08.463Z,12.30
2019-02-08T10:23:18.627Z,6.23
2019-02-08T10:26:34.246Z,10.23
2019-02-08T10:30:05.242Z,10.33
2019-02-08T10:33:14.333Z,12.43
2019-02-08T10:36:22.939Z,10.47
2019-02-08T10:39:17.417Z,9.63
2019-02-08T10:42:38.033Z,5.73
2019-02-08T10:46:01.733Z,7.40
2019-02-08T10:49:19.493Z,9.67
2019-02-08T10:52:32.173Z,8.33
2019-02-08T10:55:45.422Z,8.73
2019-02-08T10:58:44.534Z,13.87
2019-02-08T11:01:29.943Z,174.90
2019-02-08T11:04:47.079Z,380.37
2019-02-08T11:07:57.622Z,403.97
2019-02-08T11:11:06.898Z,445.43
2019-02-08T11:14:14.157Z,386.33
2019-02-08T11:17:23.081Z,358.07
2019-02-08T11:20:05.532Z,360.43
2019-02-08T11:25:50.254Z,304.03
2019-02-08T11:28:19.086Z,233.13
2019-02-08T11:30:47.995Z,254.30
2019-02-08T11:33:16.973Z,223.60
2019-02-08T11:35:45.953Z,234.27
2019-02-08T11:38:14.977Z,195.10
2019-02-08T11:40:43.977Z,205.80
2019-02-08T11:43:12.893Z,177.47
2019-02-08T11:45:41.811Z,186.20
2019-02-08T11:48:10.781Z,184.27
2019-02-08T11:50:39.790Z,176.50
2019-02-08T11:53:08.755Z,161.33
2019-02-08T11:55:37.656Z,163.07
2019-02-08T11:58:06.917Z,143.70
2019-02-08T12:00:42.758Z,159.70
2019-02-08T12:03:11.671Z,133.70
2019-02-08T12:05:40.658Z,139.63
2019-02-08T12:08:10.149Z,153.33
2019-02-08T12:10:39.122Z,127.23
2019-02-08T12:13:08.218Z,131.43
2019-02-08T12:15:37.181Z,131.07
2019-02-08T12:18:06.646Z,135.93
2019-02-08T12:20:44.093Z,114.07
2019-02-08T12:23:13.014Z,114.97
2019-02-08T12:25:41.919Z,109.30
2019-02-08T12:28:10.743Z,99.27
2019-02-08T12:30:40.765Z,101.00
2019-02-08T12:33:09.721Z,101.17
2019-02-08T12:35:38.726Z,100.23
2019-02-08T12:38:07.713Z,109.27
2019-02-08T12:40:36.693Z,105.90
2019-02-08T12:43:05.861Z,92.13
2019-02-08T12:45:34.832Z,87.00
2019-02-08T12:48:03.807Z,76.50
2019-02-08T12:50:32.773Z,76.03
2019-02-08T12:53:01.756Z,76.40
2019-02-08T12:55:30.725Z,96.07
2019-02-08T12:57:59.607Z,87.97
2019-02-08T13:00:28.803Z,70.30
2019-02-08T13:02:57.696Z,63.43
2019-02-08T13:05:26.806Z,69.33
2019-02-08T13:07:55.694Z,72.73
2019-02-08T13:10:24.702Z,78.00
2019-02-08T13:12:53.667Z,73.80
2019-02-08T13:15:22.751Z,77.63
2019-02-08T13:17:51.707Z,68.07
2019-02-08T13:20:20.690Z,67.57
2019-02-08T13:22:49.586Z,68.97
2019-02-08T13:25:18.794Z,74.53
2019-02-08T13:27:47.914Z,66.30
2019-02-08T13:30:19.610Z,63.73
2019-02-08T13:32:48.566Z,65.07
2019-02-08T13:35:17.537Z,65.73
2019-02-08T13:37:46.523Z,57.83
2019-02-08T13:40:16.603Z,57.10
2019-02-08T13:42:45.581Z,62.77
2019-02-08T13:45:14.864Z,54.73
2019-02-08T13:47:43.841Z,59.47
2019-02-08T13:50:16.038Z,52.23
2019-02-08T13:52:45.037Z,58.90
2019-02-08T13:55:14.857Z,48.73
2019-02-08T13:57:43.762Z,51.30
2019-02-08T14:00:19.610Z,44.63
2019-02-08T14:02:48.507Z,43.90
2019-02-08T14:05:17.466Z,59.17
2019-02-08T14:07:46.306Z,40.30
2019-02-08T14:10:16.383Z,52.03
2019-02-08T14:12:45.379Z,55.57
2019-02-08T14:15:14.845Z,38.03
2019-02-08T14:17:43.669Z,54.20
2019-02-08T14:20:15.126Z,44.40
2019-02-08T14:22:44.101Z,47.10
2019-02-08T14:25:13.657Z,40.90
2019-02-08T14:27:42.622Z,40.67
2019-02-08T14:30:16.883Z,38.63
2019-02-08T14:32:45.929Z,49.00
2019-02-08T14:35:15.033Z,77.40
2019-02-08T14:37:44.078Z,166.30
2019-02-08T14:40:15.761Z,184.03
2019-02-08T14:42:44.644Z,238.40
2019-02-08T14:45:13.781Z,225.87
2019-02-08T14:47:42.692Z,205.50
2019-02-08T14:50:14.266Z,185.43
2019-02-08T14:52:43.333Z,174.63
2019-02-08T14:55:12.318Z,144.20
2019-02-08T14:57:41.211Z,128.67
2019-02-08T15:00:13.287Z,123.73
2019-02-08T15:02:42.255Z,120.03
2019-02-08T15:05:11.858Z,117.93
2019-02-08T15:07:40.761Z,125.60
2019-02-08T15:10:13.483Z,105.13
2019-02-08T15:12:42.450Z,102.70
2019-02-08T15:15:11.570Z,91.77
2019-02-08T15:17:40.394Z,97.83
2019-02-08T15:20:13.969Z,96.20
2019-02-08T15:22:42.869Z,88.87
2019-02-08T15:25:12.082Z,86.50
2019-02-08T15:27:40.969Z,75.53
2019-02-08T15:30:12.609Z,80.40
2019-02-08T15:32:41.580Z,78.63
2019-02-08T15:35:11.649Z,87.93
2019-02-08T15:37:40.620Z,69.07
2019-02-08T15:40:12.191Z,92.40
2019-02-08T15:42:41.102Z,67.20
2019-02-08T15:45:15.472Z,61.63
2019-02-08T15:47:44.448Z,68.73
2019-02-08T15:50:13.710Z,68.63
2019-02-08T15:52:42.771Z,76.53
2019-02-08T15:55:15.595Z,57.13
2019-02-08T15:57:44.558Z,59.27
2019-02-08T16:00:16.070Z,53.60
2019-02-08T16:02:45.046Z,63.87
2019-02-08T16:05:14.949Z,49.80
2019-02-08T16:07:43.931Z,62.07
2019-02-08T16:10:12.889Z,60.20
2019-02-08T16:12:41.842Z,59.03
2019-02-08T16:15:14.546Z,50.50
2019-02-08T16:17:43.728Z,52.07
2019-02-08T16:20:14.073Z,61.00
2019-02-08T16:22:43.030Z,54.53
2019-02-08T16:25:12.237Z,49.10
2019-02-08T16:27:41.118Z,56.57
2019-02-08T16:30:13.814Z,42.50
2019-02-08T16:32:42.781Z,50.10
2019-02-08T16:35:13.003Z,39.90
2019-02-08T16:37:41.978Z,49.23
2019-02-08T16:40:14.126Z,45.00
2019-02-08T16:42:43.013Z,50.47
2019-02-08T16:45:15.926Z,49.43
2019-02-08T16:47:45.075Z,44.73
2019-02-08T16:50:16.519Z,37.87
2019-02-08T16:52:45.494Z,36.47
2019-02-08T16:55:14.563Z,41.97
2019-02-08T16:57:47.839Z,43.30
2019-02-08T17:00:19.665Z,45.57
2019-02-08T17:02:48.698Z,42.47
2019-02-08T17:05:18.718Z,34.10
2019-02-08T17:07:47.740Z,39.03
2019-02-08T17:10:17.066Z,35.40
2019-02-08T17:12:46.053Z,41.17
2019-02-08T17:15:17.902Z,38.40
2019-02-08T17:17:46.973Z,35.90
2019-02-08T17:20:25.055Z,38.80
2019-02-08T17:22:53.945Z,35.03
2019-02-08T17:25:22.918Z,39.53
2019-02-08T17:27:55.496Z,32.83
2019-02-08T17:30:22.603Z,31.90
2019-02-08T17:32:51.581Z,37.47
2019-02-08T17:35:21.517Z,37.70
2019-02-08T17:37:50.482Z,27.97
2019-02-08T17:40:21.298Z,30.83
2019-02-08T17:42:50.205Z,40.47
2019-02-08T17:45:19.831Z,26.33
2019-02-08T17:47:48.874Z,39.07
2019-02-08T17:50:19.874Z,26.70
2019-02-08T17:52:48.766Z,29.47
2019-02-08T17:55:18.688Z,31.70
2019-02-08T17:57:47.658Z,32.93
2019-02-08T18:00:20.006Z,28.03
2019-02-08T18:02:48.989Z,28.53
2019-02-08T18:05:17.954Z,28.23
2019-02-08T18:07:46.929Z,27.13
2019-02-08T18:10:18.190Z,28.80
2019-02-08T18:12:47.081Z,35.07
2019-02-08T18:15:18.415Z,25.77
2019-02-08T18:17:47.311Z,28.03
2019-02-08T18:20:19.651Z,28.40
2019-02-08T18:22:48.541Z,24.30
2019-02-08T18:25:18.100Z,27.37
2019-02-08T18:27:47.017Z,26.87
2019-02-08T18:30:17.042Z,26.60
2019-02-08T18:32:46.109Z,24.23
2019-02-08T18:35:15.221Z,26.83
2019-02-08T18:37:44.118Z,27.50
2019-02-08T18:40:15.094Z,22.37
2019-02-08T18:42:44.010Z,23.67
2019-02-08T18:45:16.089Z,22.87
2019-02-08T18:47:45.054Z,22.03
2019-02-08T18:50:17.562Z,25.03
2019-02-08T18:52:46.445Z,17.23
2019-02-08T18:55:15.346Z,23.20
2019-02-08T18:57:44.225Z,23.80
2019-02-08T19:00:16.421Z,20.03
2019-02-08T19:02:45.369Z,19.17
2019-02-08T19:05:14.937Z,22.87
2019-02-08T19:07:43.909Z,21.83
2019-02-08T19:10:14.976Z,19.80
2019-02-08T19:12:43.966Z,27.83
2019-02-08T19:15:14.300Z,24.33
2019-02-08T19:17:43.269Z,19.70
2019-02-08T19:20:14.054Z,22.67
2019-02-08T19:22:43.029Z,22.27
2019-02-08T19:25:14.382Z,19.60
2019-02-08T19:27:43.281Z,20.73
2019-02-08T19:30:17.666Z,20.80
2019-02-08T19:32:46.569Z,24.60
2019-02-08T19:35:16.093Z,17.70
2019-02-08T19:37:45.255Z,17.60
2019-02-08T19:40:17.118Z,17.57
2019-02-08T19:42:46.025Z,18.17
2019-02-08T19:45:16.262Z,21.40
2019-02-08T19:47:45.286Z,19.33
2019-02-08T19:53:42.920Z,17.20
2019-02-08T19:56:12.645Z,13.20
2019-02-08T19:58:42.227Z,14.20
2019-02-08T20:01:11.801Z,14.57
2019-02-08T20:03:41.481Z,11.50
2019-02-08T20:06:11.034Z,15.27
2019-02-08T20:08:40.906Z,15.60
2019-02-08T20:11:10.739Z,14.87
2019-02-08T20:13:40.461Z,13.73
2019-02-08T20:16:10.177Z,14.57
2019-02-08T20:18:40.392Z,16.13
2019-02-08T20:21:10.034Z,15.83
2019-02-08T20:23:39.765Z,11.37
2019-02-08T20:26:09.710Z,13.47
2019-02-08T20:28:42.514Z,11.27
2019-02-08T20:31:10.552Z,14.70
2019-02-08T20:33:40.112Z,16.27
2019-02-08T20:36:09.851Z,15.83
2019-02-08T20:38:39.300Z,11.10
2019-02-08T20:41:08.893Z,11.80
2019-02-08T20:43:38.675Z,14.30
2019-02-08T20:46:08.075Z,16.63
2019-02-08T20:48:38.750Z,10.37
2019-02-08T20:51:07.954Z,12.10
2019-02-08T20:53:38.152Z,11.50
2019-02-08T20:56:08.171Z,13.90
2019-02-08T20:58:38.201Z,11.10
2019-02-08T21:01:07.983Z,16.03
2019-02-08T21:03:37.554Z,12.47
2019-02-08T21:06:07.120Z,12.40
2019-02-08T21:08:36.716Z,11.33
2019-02-08T21:11:06.425Z,12.70
2019-02-08T21:13:35.597Z,10.27
2019-02-08T21:16:07.397Z,15.23
2019-02-08T21:18:36.855Z,9.13
2019-02-08T21:21:06.716Z,12.53
2019-02-08T21:23:36.131Z,13.53
2019-02-08T21:26:05.141Z,9.90
2019-02-08T21:28:33.939Z,8.57
2019-02-08T21:31:02.761Z,9.10
2019-02-08T21:33:31.557Z,11.27
2019-02-08T21:36:00.449Z,9.50
2019-02-08T21:38:29.530Z,9.13
2019-02-08T21:40:58.477Z,12.10
2019-02-08T21:43:27.360Z,12.50
2019-02-08T21:45:56.257Z,10.53
2019-02-08T21:48:25.137Z,10.87
2019-02-08T21:50:54.109Z,10.70
2019-02-08T21:53:23.145Z,14.57
2019-02-08T21:55:52.026Z,9.90
2019-02-08T21:58:21.002Z,9.87
2019-02-08T22:00:49.818Z,13.87
2019-02-08T22:03:18.746Z,8.90
2019-02-08T22:05:50.902Z,10.70
2019-02-08T22:08:19.925Z,8.40
2019-02-08T22:10:48.819Z,8.77
2019-02-08T22:13:17.730Z,8.50
2019-02-08T22:15:46.826Z,8.37
2019-02-08T22:18:15.708Z,9.87
2019-02-08T22:20:44.678Z,13.13
2019-02-08T22:23:13.566Z,8.13
2019-02-08T22:25:42.521Z,8.43
2019-02-08T22:28:11.493Z,7.90
2019-02-08T22:30:40.738Z,8.43
2019-02-08T22:33:09.714Z,10.20
2019-02-08T22:35:39.005Z,9.97
2019-02-08T22:38:08.862Z,9.03
2019-02-08T22:40:38.050Z,8.93
2019-02-08T22:43:07.147Z,7.80
2019-02-08T22:45:37.898Z,11.40
2019-02-08T22:48:07.649Z,8.13
2019-02-08T22:50:36.938Z,8.03
2019-02-08T22:53:08.257Z,10.47
2019-02-08T22:55:38.285Z,7.97
2019-02-08T22:58:08.572Z,9.63
2019-02-08T23:01:31.190Z,8.80
2019-02-08T23:04:01.658Z,10.27
2019-02-08T23:06:31.509Z,7.30
2019-02-08T23:09:01.203Z,6.90
2019-02-08T23:11:30.837Z,8.10
2019-02-08T23:14:00.840Z,7.10
2019-02-08T23:16:30.413Z,9.53
2019-02-08T23:19:00.182Z,7.60
2019-02-08T23:21:30.369Z,8.80
2019-02-08T23:23:59.880Z,7.03
2019-02-08T23:26:29.662Z,7.23
2019-02-08T23:28:59.290Z,8.97
2019-02-08T23:31:29.030Z,7.30
2019-02-08T23:33:58.621Z,6.53
2019-02-08T23:36:27.690Z,6.10
2019-02-08T23:38:56.581Z,7.27
2019-02-08T23:41:25.529Z,6.83
2019-02-08T23:43:54.419Z,7.73
2019-02-08T23:46:23.297Z,7.57
2019-02-08T23:48:52.338Z,7.97
2019-02-08T23:51:21.217Z,6.47
2019-02-08T23:53:50.013Z,8.30
2019-02-08T23:56:18.922Z,6.37
2019-02-08T23:58:47.725Z,6.00
